Estación Meteorológica Peña el Pijo (Robertgarden) [ 12/17/17 01:29:34 CET ]

Fecha Hora Presion(HPa) Temp (°C) Humedad % Rocio (°C) Viento ( m/s) Direccion Lluvia 1Hora(mm) Lluvia 24H(mm) LLuvia Total(mm)
2017-Oct-25 01:01:57 1017.000 6.5 71 1.6         1466.45
2017-Oct-25 02:01:50 1016.500 6.1 73 1.6         1466.45
2017-Oct-25 03:01:42 1016.700 5.8 75 1.7         1466.45
2017-Oct-25 04:01:37 1016.600 5.2 76 1.3         1466.45
2017-Oct-25 05:04:14 1016.100 4.9 77 1.2         1466.45
2017-Oct-25 06:01:46 1016.000 4.8 79 1.4         1466.45
2017-Oct-25 07:01:45 1016.100 4.3 80 1.2         1466.45
2017-Oct-25 08:01:51 1016.100 4.3 80 1.2         1466.45
2017-Oct-25 09:01:45 1016.200 4.2 81 1.2         1466.45
2017-Oct-25 10:02:02 1016.600 9.8 83 7.0         1466.45
2017-Oct-25 11:01:47 1016.800 18.1 53 8.3         1466.45
2017-Oct-25 12:01:48 1016.600 25.3 35 8.6         1466.45
2017-Oct-25 13:01:45 1016.300 27.3 29 7.7         1466.45
2017-Oct-25 14:01:43 1015.900 27.3 27 6.5         1466.45
2017-Oct-25 15:01:47 1015.700 27.5 23 4.3         1466.45
2017-Oct-25 16:01:51 1015.200 28.2 22 4.3         1466.45
2017-Oct-25 17:01:35 1015.300 28.6 23 5.2         1466.45
2017-Oct-25 18:01:50 1015.600 26.5 26 5.2         1466.45
2017-Oct-25 19:01:56 1016.100 20.5 34 4.0         1466.45
2017-Oct-25 20:01:53 1017.000 16.3 42 3.3         1466.45
2017-Oct-25 21:01:47 1017.600 12.1 54 3.0         1466.45
2017-Oct-25 22:01:46 1018.200 10.3 60 2.9         1466.45
2017-Oct-25 23:01:53 1018.500 8.8 66 2.8         1466.45

Temperatura Máxima:28°    Temperatura Mínima:
Presión Máxima:1018.500 Hpa    Presión Mínima:1015.200 Hpa


Volver